You are not logged in, Click here to log in
臺中清泉崗機場RMQ / RCMQ 臺灣臺中市
ICAO: RCMQ Country: 臺灣臺中市
Latitude: 24.255 Longitude: 120.601
Total Arrivals: 69 Total Departures: 67
Latest Arrival: JX3052 (RCQC-RCMQ)悅. 劉 Latest Departure: FE3051 (RCMQ-RCQC)悅. 劉
Scenery:
METAR : RCMQ 110330Z 26007KT 9999 FEW012 BKN025 32/26 Q1009 NOSIG RMK A2982

臺中清泉崗機場RMQ

You are accessing this site from IP address 34.229.119.29. Virtual Airline. CMS by phpVMS.Website designed by Zumeweb and edited by Theo Bearman.
There is 1 User(s) Online: | Lun Wang | and 21 Guest(s) Online.
All information on this site is for fight simulation purposes only. This site is for flight logging for pilots of Virtual Airline&模擬飛行論壇 FlySim only.